Latest Coastal Weather Observations for Cape Willoughby

IDS60701

Issued at 1:01 pm CST Tuesday 28 June 2022 (issued every 10 minutes, with the page automatically refreshed every 10 minutes)

About coastal observations | Map of coastal stations | Coastal observations for SA | Marine services | Other Formats
Station Details ID: 022803 Name: CAPE WILLOUGHBY Lat: -35.84 Lon: 138.13 Height: 55.0 m
Data from the previous 72 hours. | See also: Recent months at Cape Willoughby
Date/Time
CST
Wind Sea
Height
m
Swell Vis
km
Cloud Weather Temp
°C
Press
MSL
hPa
Rain since
9am
mm
Dir  Spd
kts
Gust
kts
Height
m
Period
s
Dir
28/01:00pm N 22 26 - - - - - - - 13.9 1026.0 0.0
28/12:30pm N 24 28 - - - - - - - 13.7 1026.4 0.0
28/12:00pm N 24 29 - - - - - - - 13.5 1026.9 0.0
28/11:30am N 25 29 - - - - - - - 13.5 1027.3 0.0
28/11:00am N 23 29 - - - - - - - 13.6 1027.6 0.0
28/10:30am N 23 26 - - - - - - - 13.3 1027.8 0.0
28/10:00am N 21 27 - - - - - - - 13.0 1027.9 0.0
28/09:30am NNW 22 28 - - - - - - - 12.9 1028.0 0.0
28/09:00am NNW 23 29 - - - - - - - 12.1 1027.9 0.0
28/08:30am NNW 22 26 - - - - - - - 11.5 1028.2 0.0
28/08:00am N 23 26 - - - - - - - 11.4 1028.4 0.0
28/07:30am N 23 28 - - - - - - - 11.2 1028.2 0.0
28/07:00am N 21 25 - - - - - - - 11.2 1028.0 0.0
28/06:30am N 22 26 - - - - - - - 11.2 1027.8 0.0
28/06:00am N 22 25 - - - - - - - 11.2 1027.8 0.0
28/05:30am N 22 26 - - - - - - - 11.3 1027.8 0.0
28/05:00am N 22 26 - - - - - - - 11.1 1027.6 0.0
28/04:30am N 17 22 - - - - - - - 10.8 1028.0 0.0
28/04:00am N 10 12 - - - - - - - 10.6 1028.7 0.0
28/03:30am NNE 12 15 - - - - - - - 10.9 1028.7 0.0
28/03:00am NNE 11 13 - - - - - - - 10.8 1029.1 0.0
28/02:30am NNE 9 11 - - - - - - - 10.7 1029.7 0.0
28/02:00am NE 7 9 - - - - - - - 10.9 1030.1 0.0
28/01:30am N 9 11 - - - - - - - 10.5 1030.5 0.0
28/01:00am NE 8 10 - - - - - - - 11.0 1030.7 0.0
28/12:30am N 10 14 - - - - - - - 11.3 1030.8 0.0
28/12:00am N 11 13 - - - - - - - 10.9 1031.0 0.0
 
Date/Time
CST
Wind Sea
Height
m
Swell Vis
km
Cloud Weather Temp
°C
Press
MSL
hPa
Rain since
9am
mm
Dir  Spd
kts
Gust
kts
Height
m
Period
s
Dir
27/11:30pm N 10 12 - - - - - - - 11.1 1031.2 0.0
27/11:00pm NNE 10 12 - - - - - - - 11.3 1031.4 0.0
27/10:30pm N 9 10 - - - - - - - 11.0 1031.7 0.0
27/10:00pm NNW 6 7 - - - - - - - 9.6 1032.0 0.0
27/09:30pm NNW 7 8 - - - - - - - 9.4 1032.4 0.0
27/09:00pm NNW 7 8 - - - - - - - 9.6 1032.6 0.0
27/08:30pm NNW 5 7 - - - - - - - 9.8 1032.5 0.0
27/08:00pm NNW 6 7 - - - - - - - 9.4 1032.5 0.0
27/07:30pm NW 8 9 - - - - - - - 9.6 1032.7 0.0
27/07:00pm NW 9 9 - - - - - - - 9.8 1032.8 0.0
27/06:30pm NW 9 10 - - - - - - - 9.8 1032.8 0.0
27/06:00pm NW 8 9 - - - - - - - 10.1 1032.9 0.0
27/05:30pm NW 8 9 - - - - - - - 10.6 1032.8 0.0
27/05:00pm NNW 8 11 - - - - - - - 11.3 1032.9 0.0
27/04:30pm NNW 10 13 - - - - - - - 12.0 1032.8 0.0
27/04:00pm NNW 10 13 - - - - - - - 12.5 1032.7 0.0
27/03:30pm NNW 12 15 - - - - - - - 12.4 1032.7 0.0
27/03:00pm N 12 14 - - - - - - - 12.6 1033.0 0.0
27/02:30pm NNW 12 15 - - - - - - - 12.9 1033.2 0.0
27/02:00pm N 11 15 - - - - - - - 14.7 1033.5 0.0
27/01:30pm N 9 11 - - - - - - - 14.7 1034.0 0.0
27/01:00pm N 8 11 - - - - - - - 14.6 1034.4 0.0
27/12:30pm N 6 9 - - - - - - - 13.6 1035.0 0.0
27/12:00pm N 5 6 - - - - - - - 13.3 1035.4 0.0
27/11:30am N 5 7 - - - - - - - 13.8 1035.9 0.0
27/11:00am N 5 7 - - - - - - - 13.3 1036.1 0.0
27/10:30am NW 5 7 - - - - - - - 13.7 1036.1 0.0
27/10:00am NW 4 6 - - - - - - - 13.4 1036.0 0.0
27/09:30am NNW 3 4 - - - - - - - 12.6 1035.7 0.0
27/09:00am NNW 4 5 - - - - - - - 12.5 1035.3 1.6
27/08:30am NNW 4 4 - - - - - - - 11.0 1035.2 1.6
27/08:00am NNW 3 3 - - - - - - - 10.7 1034.9 1.6
27/07:30am NNW 3 4 - - - - - - - 10.7 1034.7 1.6
27/07:00am N 3 4 - - - - - - - 11.1 1034.0 1.6
27/06:30am CALM 0 0 - - - - - - - 11.0 1033.7 1.6
27/06:00am CALM 0 0 - - - - - - - 11.1 1033.4 1.6
27/05:30am CALM 0 0 - - - - - - - 11.6 1033.5 1.6
27/05:00am SSW 1 2 - - - - - - - 11.5 1033.5 1.6
27/04:30am ESE 2 3 - - - - - - - 11.2 1033.3 1.6
27/04:00am S 3 5 - - - - - - - 11.6 1033.2 1.6
27/03:30am SE 5 7 - - - - - - - 11.8 1033.2 1.6
27/03:00am SSE 3 4 - - - - - - - 11.6 1033.2 1.6
27/02:30am SSW 2 3 - - - - - - - 12.0 1033.3 1.6
27/02:00am S 4 6 - - - - - - - 12.0 1033.4 1.6
27/01:30am SSE 8 12 - - - - - - - 12.3 1033.2 1.6
27/01:00am S 4 7 - - - - - - - 12.4 1033.4 1.6
27/12:30am S 9 12 - - - - - - - 12.3 1033.5 1.6
27/12:00am S 9 13 - - - - - - - 12.3 1033.5 1.6
 
Date/Time
CST
Wind Sea
Height
m
Swell Vis
km
Cloud Weather Temp
°C
Press
MSL
hPa
Rain since
9am
mm
Dir  Spd
kts
Gust
kts
Height
m
Period
s
Dir
26/11:30pm S 10 12 - - - - - - - 12.4 1033.4 1.6
26/11:00pm SSE 9 13 - - - - - - - 12.6 1033.0 1.6
26/10:30pm SSE 7 10 - - - - - - - 12.4 1032.8 1.6
26/10:00pm S 10 15 - - - - - - - 12.4 1032.7 1.6
26/09:30pm S 11 15 - - - - - - - 12.5 1032.4 1.6
26/09:00pm S 12 16 - - - - - - - 12.3 1032.3 1.6
26/08:30pm S 12 16 - - - - - - - 12.4 1031.9 1.6
26/08:00pm S 12 15 - - - - - - - 12.5 1031.6 1.6
26/07:30pm S 13 18 - - - - - - - 12.4 1031.3 1.6
26/07:00pm S 12 17 - - - - - - - 12.4 1031.0 1.6
26/06:30pm SSW 12 18 - - - - - - - 12.2 1030.8 1.6
26/06:00pm SSW 17 21 - - - - - - - 11.9 1030.5 1.6
26/05:30pm SSW 13 20 - - - - - - - 12.6 1030.0 1.6
26/05:00pm SSW 13 20 - - - - - - - 12.8 1029.6 1.6
26/04:30pm SSW 14 21 - - - - - - - 12.9 1029.3 1.6
26/04:00pm SSW 13 20 - - - - - - - 12.9 1029.0 1.6
26/03:30pm S 14 22 - - - - - - - 13.0 1028.6 1.6
26/03:00pm S 14 19 - - - - - - - 13.1 1028.3 1.6
26/02:30pm S 16 23 - - - - - - - 12.8 1028.0 1.6
26/02:00pm SSW 15 21 - - - - - - - 13.4 1027.9 1.6
26/01:30pm SW 17 22 - - - - - - - 13.3 1027.7 1.6
26/01:00pm SSW 13 17 - - - - - - - 13.3 1027.8 1.6
26/12:30pm SSW 10 14 - - - - - - - 13.4 1027.9 1.6
26/12:00pm SSW 12 19 - - - - - - Recent precip. 12.6 1027.8 1.6
26/11:30am SSW 13 19 - - - - - - - 12.2 1027.8 1.6
26/11:00am S 12 16 - - - - - - - 12.0 1027.9 1.4
26/10:30am SSW 10 14 - - - - - - - 11.4 1027.8 1.4
26/10:13am SW 7 19 - - - - - - - 12.2 1027.8 0.0
26/10:00am W 7 9 - - - - - - - 12.5 1027.7 0.0
26/09:30am SSW 13 20 - - - - - - - 12.6 1027.1 0.0
26/09:00am WSW 11 15 - - - - - - Rain 11.9 1026.9 1.8
26/08:30am WSW 10 15 - - - - - - - 11.5 1026.6 1.0
26/08:00am WNW 11 14 - - - - - - - 10.6 1026.2 1.0
26/07:30am WNW 10 13 - - - - - - - 9.9 1025.8 1.0
26/07:00am WNW 11 14 - - - - - - - 10.2 1025.4 1.0
26/06:30am W 14 20 - - - - - - - 10.8 1025.1 1.0
26/06:00am WNW 12 14 - - - - - - - 10.3 1024.6 0.6
26/05:30am WNW 12 14 - - - - - - - 9.8 1024.3 0.6
26/05:00am WNW 10 12 - - - - - - - 10.2 1024.1 0.6
26/04:30am WNW 12 14 - - - - - - - 9.8 1024.0 0.6
26/04:00am WNW 11 13 - - - - - - - 9.9 1023.8 0.6
26/03:30am WNW 12 15 - - - - - - - 10.3 1023.8 0.6
26/03:00am WNW 12 13 - - - - - - - 10.2 1023.8 0.6
26/02:30am NW 11 13 - - - - - - - 10.3 1023.6 0.6
26/02:00am WNW 12 15 - - - - - - - 10.3 1023.6 0.6
26/01:30am WNW 12 14 - - - - - - - 10.4 1023.5 0.6
26/01:00am WNW 12 14 - - - - - - - 10.7 1023.4 0.6
26/12:30am WNW 13 16 - - - - - - - 10.5 1023.3 0.6
26/12:00am WNW 13 15 - - - - - - - 10.6 1023.4 0.6
 
Date/Time
CST
Wind Sea
Height
m
Swell Vis
km
Cloud Weather Temp
°C
Press
MSL
hPa
Rain since
9am
mm
Dir  Spd
kts
Gust
kts
Height
m
Period
s
Dir
25/11:30pm WNW 12 16 - - - - - - - 10.9 1023.4 0.6
25/11:00pm WNW 12 15 - - - - - - - 11.1 1023.3 0.6
25/10:30pm WNW 12 15 - - - - - - - 11.4 1023.3 0.6
25/10:00pm WNW 12 16 - - - - - - - 11.6 1023.2 0.6
25/09:30pm NW 12 14 - - - - - - - 11.4 1022.9 0.6
25/09:00pm WNW 12 14 - - - - - - - 11.7 1022.9 0.6
25/08:30pm WNW 12 15 - - - - - - - 12.0 1022.8 0.6
25/08:00pm WNW 11 13 - - - - - - - 12.1 1022.6 0.6
25/07:30pm WNW 11 13 - - - - - - - 12.2 1022.3 0.6
25/07:00pm NW 11 14 - - - - - - - 12.2 1022.0 0.6
25/06:30pm NW 10 12 - - - - - - - 12.2 1021.7 0.6
25/06:00pm NW 10 12 - - - - - - - 12.6 1021.3 0.6
25/05:30pm NW 9 12 - - - - - - - 13.0 1020.9 0.6
25/05:00pm NW 11 14 - - - - - - - 13.7 1020.8 0.6
25/04:30pm NW 11 13 - - - - - - - 13.5 1020.5 0.6
25/04:00pm NW 12 15 - - - - - - - 14.2 1020.8 0.6
25/03:30pm NW 9 15 - - - - - - - 14.6 1020.7 0.6
25/03:00pm WNW 8 11 - - - - - - Recent precip. 13.4 1020.6 0.6
25/02:30pm NW 11 17 - - - - - - - 14.9 1020.5 0.0
25/02:00pm WNW 11 15 - - - - - - - 14.7 1020.5 0.0
25/01:30pm NNW 15 22 - - - - - - - 14.6 1020.8 0.0

Other formats

Comma delimited format used in spreadsheet applications
http://www.bom.gov.au/fwo/IDS60701/IDS60701.94822.axf

JavaScript Object Notation format (JSON) in row-major order
http://www.bom.gov.au/fwo/IDS60701/IDS60701.94822.json

Data quality

Most of these data are generated automatically and are frequently updated. Quality checks on data are not normally performed. It is possible for incorrect values to appear. Refer to information at About Latest Weather Observations and please check the disclaimer before using these data.